Back to Top

Language: 

My Weather Underground Personal Weather Station Historical Data with Graphs...

Delerius Weather Station Historical Data
Daily Summary for February 1, 2018 Units:  Both    English   Metric
« Previous Day
Next Day »
Daily Weekly Monthly Yearly Custom
  High: Low: Average:
Temperature: 44.8 °F /  7.1 °C 35.4 °F /  1.9 °C 39.6 °F /  4.2 °C
Dew Point: 36.7 °F /  2.6 °C 31.4 °F /  -0.3 °C 33.7 °F /  0.9 °C
Humidity: 91% 69% 80%
Wind Speed: 20.0mph /  32.2km/h - 11.3mph /  18.2km/h
Wind Gust: 31.0mph /  49.9km/h - -
Wind- - WNW
Pressure: 29.75 in /  1007.3 hPa 29.37 in /  994.5 hPa -
Precipitation: 0.00 in /  0 mm    
Historical Graphs
 
 
Tabular Data for February 1, 2018
Time Temperature Dew Point Pressure Wind Wind Speed Wind Gust Humidity Rainfall Rate (Hourly) solar Conditions
00:01 36.3 °F /  2.4 °C 33.4 °F /  0.8 °C 29.37in /  994.5hPa WNW 7.0mph /  11.3km/h 10.0mph /  16.1km/h 89% 0.00in /  0mm 0 W/m2
00:07 36.1 °F /  2.3 °C 33.2 °F /  0.7 °C 29.37in /  994.5hPa WNW 9.0mph /  14.5km/h 15.0mph /  24.1km/h 89% 0.00in /  0mm 0 W/m2
00:12 36.0 °F /  2.2 °C 33.0 °F /  0.6 °C 29.37in /  994.5hPa WNW 8.0mph /  12.9km/h 12.0mph /  19.3km/h 89% 0.00in /  0mm 0 W/m2
00:17 35.8 °F /  2.1 °C 32.9 °F /  0.5 °C 29.37in /  994.5hPa West 11.0mph /  17.7km/h 18.0mph /  29km/h 89% 0.00in /  0mm 0 W/m2
00:22 35.8 °F /  2.1 °C 33.1 °F /  0.6 °C 29.37in /  994.5hPa WNW 10.0mph /  16.1km/h 14.0mph /  22.5km/h 90% 0.00in /  0mm 0 W/m2
00:27 35.8 °F /  2.1 °C 33.1 °F /  0.6 °C 29.37in /  994.5hPa WNW 9.0mph /  14.5km/h 12.0mph /  19.3km/h 90% 0.00in /  0mm 0 W/m2
00:32 35.8 °F /  2.1 °C 33.1 °F /  0.6 °C 29.38in /  994.8hPa WNW 8.0mph /  12.9km/h 11.0mph /  17.7km/h 90% 0.00in /  0mm 0 W/m2
00:37 36.0 °F /  2.2 °C 33.3 °F /  0.7 °C 29.38in /  994.8hPa WNW 7.0mph /  11.3km/h 10.0mph /  16.1km/h 90% 0.00in /  0mm 0 W/m2
00:42 36.0 °F /  2.2 °C 33.3 °F /  0.7 °C 29.38in /  994.8hPa WNW 9.0mph /  14.5km/h 13.0mph /  20.9km/h 90% 0.00in /  0mm 0 W/m2
00:47 36.1 °F /  2.3 °C 33.5 °F /  0.8 °C 29.39in /  995.1hPa WNW 7.0mph /  11.3km/h 10.0mph /  16.1km/h 90% 0.00in /  0mm 0 W/m2
00:52 36.3 °F /  2.4 °C 33.9 °F /  1.1 °C 29.39in /  995.1hPa WNW 8.0mph /  12.9km/h 14.0mph /  22.5km/h 91% 0.00in /  0mm 0 W/m2
00:57 36.7 °F /  2.6 °C 34.3 °F /  1.3 °C 29.39in /  995.1hPa WNW 9.0mph /  14.5km/h 14.0mph /  22.5km/h 91% 0.00in /  0mm 0 W/m2
01:02 36.9 °F /  2.7 °C 34.5 °F /  1.4 °C 29.39in /  995.1hPa WNW 10.0mph /  16.1km/h 16.0mph /  25.7km/h 91% 0.00in /  0mm 0 W/m2
01:07 37.0 °F /  2.8 °C 34.7 °F /  1.5 °C 29.40in /  995.5hPa WNW 12.0mph /  19.3km/h 18.0mph /  29km/h 91% 0.00in /  0mm 0 W/m2
01:12 37.0 °F /  2.8 °C 34.4 °F /  1.3 °C 29.40in /  995.5hPa WNW 9.0mph /  14.5km/h 14.0mph /  22.5km/h 90% 0.00in /  0mm 0 W/m2
01:17 37.0 °F /  2.8 °C 34.4 °F /  1.3 °C 29.40in /  995.5hPa WNW 11.0mph /  17.7km/h 16.0mph /  25.7km/h 90% 0.00in /  0mm 0 W/m2
01:22 37.0 °F /  2.8 °C 34.4 °F /  1.3 °C 29.40in /  995.5hPa WNW 10.0mph /  16.1km/h 16.0mph /  25.7km/h 90% 0.00in /  0mm 0 W/m2
01:27 37.0 °F /  2.8 °C 34.4 °F /  1.3 °C 29.40in /  995.5hPa WNW 10.0mph /  16.1km/h 16.0mph /  25.7km/h 90% 0.00in /  0mm 0 W/m2
01:32 36.9 °F /  2.7 °C 34.2 °F /  1.2 °C 29.41in /  995.8hPa NW 8.0mph /  12.9km/h 14.0mph /  22.5km/h 90% 0.00in /  0mm 0 W/m2
01:37 36.9 °F /  2.7 °C 34.2 °F /  1.2 °C 29.40in /  995.5hPa WNW 9.0mph /  14.5km/h 19.0mph /  30.6km/h 90% 0.00in /  0mm 0 W/m2
01:42 36.9 °F /  2.7 °C 34.2 °F /  1.2 °C 29.41in /  995.8hPa WNW 11.0mph /  17.7km/h 16.0mph /  25.7km/h 90% 0.00in /  0mm 0 W/m2
01:47 36.9 °F /  2.7 °C 34.2 °F /  1.2 °C 29.41in /  995.8hPa WNW 10.0mph /  16.1km/h 15.0mph /  24.1km/h 90% 0.00in /  0mm 0 W/m2
01:52 36.9 °F /  2.7 °C 34.2 °F /  1.2 °C 29.41in /  995.8hPa NW 9.0mph /  14.5km/h 14.0mph /  22.5km/h 90% 0.00in /  0mm 0 W/m2
01:57 36.7 °F /  2.6 °C 34.0 °F /  1.1 °C 29.42in /  996.2hPa WNW 9.0mph /  14.5km/h 13.0mph /  20.9km/h 90% 0.00in /  0mm 0 W/m2
02:02 36.7 °F /  2.6 °C 33.7 °F /  0.9 °C 29.42in /  996.2hPa WNW 9.0mph /  14.5km/h 15.0mph /  24.1km/h 89% 0.00in /  0mm 0 W/m2
02:07 36.7 °F /  2.6 °C 33.7 °F /  0.9 °C 29.43in /  996.5hPa WNW 10.0mph /  16.1km/h 16.0mph /  25.7km/h 89% 0.00in /  0mm 0 W/m2
02:12 36.9 °F /  2.7 °C 33.9 °F /  1.1 °C 29.43in /  996.5hPa WNW 9.0mph /  14.5km/h 15.0mph /  24.1km/h 89% 0.00in /  0mm 0 W/m2
02:17 36.9 °F /  2.7 °C 33.9 °F /  1.1 °C 29.43in /  996.5hPa NW 6.0mph /  9.7km/h 9.0mph /  14.5km/h 89% 0.00in /  0mm 0 W/m2
02:22 36.9 °F /  2.7 °C 33.9 °F /  1.1 °C 29.43in /  996.5hPa WNW 7.0mph /  11.3km/h 12.0mph /  19.3km/h 89% 0.00in /  0mm 0 W/m2
02:27 36.7 °F /  2.6 °C 33.7 °F /  0.9 °C 29.43in /  996.5hPa WNW 6.0mph /  9.7km/h 12.0mph /  19.3km/h 89% 0.00in /  0mm 0 W/m2
02:32 36.7 °F /  2.6 °C 33.7 °F /  0.9 °C 29.43in /  996.5hPa WNW 7.0mph /  11.3km/h 12.0mph /  19.3km/h 89% 0.00in /  0mm 0 W/m2
02:37 36.5 °F /  2.5 °C 33.6 °F /  0.9 °C 29.43in /  996.5hPa WNW 6.0mph /  9.7km/h 8.0mph /  12.9km/h 89% 0.00in /  0mm 0 W/m2
02:42 36.3 °F /  2.4 °C 33.4 °F /  0.8 °C 29.43in /  996.5hPa WNW 4.0mph /  6.4km/h 7.0mph /  11.3km/h 89% 0.00in /  0mm 0 W/m2
02:47 36.1 °F /  2.3 °C 33.2 °F /  0.7 °C 29.43in /  996.5hPa WNW 5.0mph /  8km/h 8.0mph /  12.9km/h 89% 0.00in /  0mm 0 W/m2
02:52 36.0 °F /  2.2 °C 33.0 °F /  0.6 °C 29.43in /  996.5hPa West 6.0mph /  9.7km/h 10.0mph /  16.1km/h 89% 0.00in /  0mm 0 W/m2
02:57 36.0 °F /  2.2 °C 33.0 °F /  0.6 °C 29.43in /  996.5hPa WNW 5.0mph /  8km/h 8.0mph /  12.9km/h 89% 0.00in /  0mm 0 W/m2
03:02 35.8 °F /  2.1 °C 32.9 °F /  0.5 °C 29.43in /  996.5hPa WNW 6.0mph /  9.7km/h 10.0mph /  16.1km/h 89% 0.00in /  0mm 0 W/m2
03:07 35.8 °F /  2.1 °C 32.9 °F /  0.5 °C 29.43in /  996.5hPa WNW 3.0mph /  4.8km/h 6.0mph /  9.7km/h 89% 0.00in /  0mm 0 W/m2
03:12 35.6 °F /  2 °C 32.7 °F /  0.4 °C 29.43in /  996.5hPa NW 4.0mph /  6.4km/h 7.0mph /  11.3km/h 89% 0.00in /  0mm 0 W/m2
03:17 35.4 °F /  1.9 °C 32.5 °F /  0.3 °C 29.43in /  996.5hPa NW 6.0mph /  9.7km/h 10.0mph /  16.1km/h 89% 0.00in /  0mm 0 W/m2
03:22 35.4 °F /  1.9 °C 32.5 °F /  0.3 °C 29.43in /  996.5hPa NW 8.0mph /  12.9km/h 18.0mph /  29km/h 89% 0.00in /  0mm 0 W/m2
03:27 35.8 °F /  2.1 °C 32.6 °F /  0.3 °C 29.43in /  996.5hPa WNW 10.0mph /  16.1km/h 14.0mph /  22.5km/h 88% 0.00in /  0mm 0 W/m2
03:32 35.8 °F /  2.1 °C 32.6 °F /  0.3 °C 29.43in /  996.5hPa WNW 10.0mph /  16.1km/h 14.0mph /  22.5km/h 88% 0.00in /  0mm 0 W/m2
03:37 36.0 °F /  2.2 °C 32.5 °F /  0.3 °C 29.43in /  996.5hPa WNW 11.0mph /  17.7km/h 18.0mph /  29km/h 87% 0.00in /  0mm 0 W/m2
03:43 36.1 °F /  2.3 °C 32.6 °F /  0.3 °C 29.42in /  996.2hPa WNW 11.0mph /  17.7km/h 18.0mph /  29km/h 87% 0.00in /  0mm 0 W/m2
03:48 36.3 °F /  2.4 °C 32.8 °F /  0.4 °C 29.42in /  996.2hPa WNW 13.0mph /  20.9km/h 20.0mph /  32.2km/h 87% 0.00in /  0mm 0 W/m2
03:53 36.5 °F /  2.5 °C 33.0 °F /  0.6 °C 29.42in /  996.2hPa WNW 13.0mph /  20.9km/h 23.0mph /  37km/h 87% 0.00in /  0mm 0 W/m2
03:58 36.7 °F /  2.6 °C 33.2 °F /  0.7 °C 29.43in /  996.5hPa WNW 14.0mph /  22.5km/h 24.0mph /  38.6km/h 87% 0.00in /  0mm 0 W/m2
04:03 36.9 °F /  2.7 °C 33.4 °F /  0.8 °C 29.43in /  996.5hPa WNW 13.0mph /  20.9km/h 22.0mph /  35.4km/h 87% 0.00in /  0mm 0 W/m2
04:08 36.9 °F /  2.7 °C 33.4 °F /  0.8 °C 29.43in /  996.5hPa WNW 13.0mph /  20.9km/h 21.0mph /  33.8km/h 87% 0.00in /  0mm 0 W/m2
04:13 36.9 °F /  2.7 °C 33.4 °F /  0.8 °C 29.44in /  996.8hPa WNW 14.0mph /  22.5km/h 25.0mph /  40.2km/h 87% 0.00in /  0mm 0 W/m2
04:18 36.9 °F /  2.7 °C 33.4 °F /  0.8 °C 29.44in /  996.8hPa WNW 12.0mph /  19.3km/h 18.0mph /  29km/h 87% 0.00in /  0mm 0 W/m2
04:23 36.9 °F /  2.7 °C 33.4 °F /  0.8 °C 29.44in /  996.8hPa WNW 13.0mph /  20.9km/h 21.0mph /  33.8km/h 87% 0.00in /  0mm 0 W/m2
04:28 36.9 °F /  2.7 °C 33.4 °F /  0.8 °C 29.45in /  997.2hPa WNW 13.0mph /  20.9km/h 21.0mph /  33.8km/h 87% 0.00in /  0mm 0 W/m2
04:33 36.9 °F /  2.7 °C 33.4 °F /  0.8 °C 29.45in /  997.2hPa WNW 11.0mph /  17.7km/h 14.0mph /  22.5km/h 87% 0.00in /  0mm 0 W/m2
04:38 37.0 °F /  2.8 °C 33.2 °F /  0.7 °C 29.46in /  997.5hPa WNW 10.0mph /  16.1km/h 18.0mph /  29km/h 86% 0.00in /  0mm 0 W/m2
04:43 37.0 °F /  2.8 °C 33.2 °F /  0.7 °C 29.46in /  997.5hPa WNW 12.0mph /  19.3km/h 20.0mph /  32.2km/h 86% 0.00in /  0mm 0 W/m2
04:48 37.0 °F /  2.8 °C 33.2 °F /  0.7 °C 29.46in /  997.5hPa WNW 10.0mph /  16.1km/h 16.0mph /  25.7km/h 86% 0.00in /  0mm 0 W/m2
04:53 37.0 °F /  2.8 °C 33.5 °F /  0.8 °C 29.46in /  997.5hPa WNW 9.0mph /  14.5km/h 14.0mph /  22.5km/h 87% 0.00in /  0mm 0 W/m2
04:58 37.0 °F /  2.8 °C 33.5 °F /  0.8 °C 29.46in /  997.5hPa WNW 10.0mph /  16.1km/h 18.0mph /  29km/h 87% 0.00in /  0mm 0 W/m2
05:03 37.0 °F /  2.8 °C 33.5 °F /  0.8 °C 29.46in /  997.5hPa WNW 10.0mph /  16.1km/h 14.0mph /  22.5km/h 87% 0.00in /  0mm 0 W/m2
05:08 37.0 °F /  2.8 °C 33.5 °F /  0.8 °C 29.46in /  997.5hPa WNW 12.0mph /  19.3km/h 18.0mph /  29km/h 87% 0.00in /  0mm 0 W/m2
05:13 37.0 °F /  2.8 °C 33.5 °F /  0.8 °C 29.46in /  997.5hPa WNW 11.0mph /  17.7km/h 19.0mph /  30.6km/h 87% 0.00in /  0mm 0 W/m2
05:18 37.0 °F /  2.8 °C 33.5 °F /  0.8 °C 29.46in /  997.5hPa WNW 12.0mph /  19.3km/h 21.0mph /  33.8km/h 87% 0.00in /  0mm 0 W/m2
05:23 37.2 °F /  2.9 °C 33.7 °F /  0.9 °C 29.46in /  997.5hPa WNW 11.0mph /  17.7km/h 15.0mph /  24.1km/h 87% 0.00in /  0mm 0 W/m2
05:28 37.2 °F /  2.9 °C 33.7 °F /  0.9 °C 29.47in /  997.9hPa WNW 10.0mph /  16.1km/h 18.0mph /  29km/h 87% 0.00in /  0mm 0 W/m2
05:33 37.0 °F /  2.8 °C 33.5 °F /  0.8 °C 29.47in /  997.9hPa WNW 11.0mph /  17.7km/h 18.0mph /  29km/h 87% 0.00in /  0mm 0 W/m2
05:38 37.0 °F /  2.8 °C 33.5 °F /  0.8 °C 29.47in /  997.9hPa WNW 11.0mph /  17.7km/h 19.0mph /  30.6km/h 87% 0.00in /  0mm 0 W/m2
05:43 37.0 °F /  2.8 °C 33.5 °F /  0.8 °C 29.47in /  997.9hPa WNW 10.0mph /  16.1km/h 16.0mph /  25.7km/h 87% 0.00in /  0mm 0 W/m2
05:48 37.0 °F /  2.8 °C 33.5 °F /  0.8 °C 29.47in /  997.9hPa WNW 12.0mph /  19.3km/h 19.0mph /  30.6km/h 87% 0.00in /  0mm 0 W/m2
05:54 37.0 °F /  2.8 °C 33.5 °F /  0.8 °C 29.48in /  998.2hPa WNW 10.0mph /  16.1km/h 15.0mph /  24.1km/h 87% 0.00in /  0mm 0 W/m2
05:59 37.0 °F /  2.8 °C 33.5 °F /  0.8 °C 29.47in /  997.9hPa WNW 12.0mph /  19.3km/h 21.0mph /  33.8km/h 87% 0.00in /  0mm 0 W/m2
06:04 37.0 °F /  2.8 °C 33.5 °F /  0.8 °C 29.47in /  997.9hPa WNW 12.0mph /  19.3km/h 19.0mph /  30.6km/h 87% 0.00in /  0mm 0 W/m2
06:09 37.0 °F /  2.8 °C 33.5 °F /  0.8 °C 29.48in /  998.2hPa WNW 12.0mph /  19.3km/h 19.0mph /  30.6km/h 87% 0.00in /  0mm 0 W/m2
06:14 37.0 °F /  2.8 °C 33.5 °F /  0.8 °C 29.48in /  998.2hPa WNW 12.0mph /  19.3km/h 19.0mph /  30.6km/h 87% 0.00in /  0mm 0 W/m2
06:19 37.0 °F /  2.8 °C 33.5 °F /  0.8 °C 29.48in /  998.2hPa WNW 11.0mph /  17.7km/h 18.0mph /  29km/h 87% 0.00in /  0mm 0 W/m2
06:24 37.0 °F /  2.8 °C 33.5 °F /  0.8 °C 29.48in /  998.2hPa WNW 11.0mph /  17.7km/h 16.0mph /  25.7km/h 87% 0.00in /  0mm 0 W/m2
06:29 37.0 °F /  2.8 °C 33.5 °F /  0.8 °C 29.49in /  998.5hPa WNW 12.0mph /  19.3km/h 22.0mph /  35.4km/h 87% 0.00in /  0mm 0 W/m2
06:34 37.2 °F /  2.9 °C 33.7 °F /  0.9 °C 29.48in /  998.2hPa WNW 10.0mph /  16.1km/h 19.0mph /  30.6km/h 87% 0.00in /  0mm 0 W/m2
06:39 37.2 °F /  2.9 °C 33.7 °F /  0.9 °C 29.48in /  998.2hPa WNW 11.0mph /  17.7km/h 19.0mph /  30.6km/h 87% 0.00in /  0mm 0 W/m2
06:44 37.2 °F /  2.9 °C 33.7 °F /  0.9 °C 29.49in /  998.5hPa WNW 12.0mph /  19.3km/h 16.0mph /  25.7km/h 87% 0.00in /  0mm 0 W/m2
06:49 37.2 °F /  2.9 °C 33.7 °F /  0.9 °C 29.49in /  998.5hPa WNW 11.0mph /  17.7km/h 21.0mph /  33.8km/h 87% 0.00in /  0mm 0 W/m2
06:54 37.4 °F /  3 °C 33.9 °F /  1.1 °C 29.49in /  998.5hPa WNW 12.0mph /  19.3km/h 18.0mph /  29km/h 87% 0.00in /  0mm 0 W/m2
06:59 37.4 °F /  3 °C 33.9 °F /  1.1 °C 29.49in /  998.5hPa WNW 11.0mph /  17.7km/h 20.0mph /  32.2km/h 87% 0.00in /  0mm 0 W/m2
07:04 37.4 °F /  3 °C 33.9 °F /  1.1 °C 29.50in /  998.9hPa WNW 15.0mph /  24.1km/h 26.0mph /  41.8km/h 87% 0.00in /  0mm 0 W/m2
07:09 37.6 °F /  3.1 °C 34.1 °F /  1.2 °C 29.49in /  998.5hPa WNW 14.0mph /  22.5km/h 22.0mph /  35.4km/h 87% 0.00in /  0mm 0 W/m2
07:14 37.6 °F /  3.1 °C 34.1 °F /  1.2 °C 29.49in /  998.5hPa WNW 14.0mph /  22.5km/h 23.0mph /  37km/h 87% 0.00in /  0mm 0 W/m2
07:19 37.6 °F /  3.1 °C 34.1 °F /  1.2 °C 29.49in /  998.5hPa WNW 13.0mph /  20.9km/h 22.0mph /  35.4km/h 87% 0.00in /  0mm 0 W/m2
07:24 37.4 °F /  3 °C 33.9 °F /  1.1 °C 29.50in /  998.9hPa WNW 10.0mph /  16.1km/h 16.0mph /  25.7km/h 87% 0.00in /  0mm 0 W/m2
07:29 37.2 °F /  2.9 °C 33.7 °F /  0.9 °C 29.50in /  998.9hPa WNW 10.0mph /  16.1km/h 18.0mph /  29km/h 87% 0.00in /  0mm 0 W/m2
07:34 37.2 °F /  2.9 °C 33.7 °F /  0.9 °C 29.50in /  998.9hPa WNW 11.0mph /  17.7km/h 18.0mph /  29km/h 87% 0.00in /  0mm 0 W/m2
07:39 37.2 °F /  2.9 °C 33.7 °F /  0.9 °C 29.50in /  998.9hPa WNW 12.0mph /  19.3km/h 16.0mph /  25.7km/h 87% 0.00in /  0mm 0 W/m2
07:44 37.2 °F /  2.9 °C 33.7 °F /  0.9 °C 29.51in /  999.2hPa WNW 11.0mph /  17.7km/h 16.0mph /  25.7km/h 87% 0.00in /  0mm 0 W/m2
07:49 37.2 °F /  2.9 °C 33.7 °F /  0.9 °C 29.51in /  999.2hPa WNW 11.0mph /  17.7km/h 18.0mph /  29km/h 87% 0.00in /  0mm 5 W/m2
07:54 37.2 °F /  2.9 °C 33.7 °F /  0.9 °C 29.51in /  999.2hPa WNW 12.0mph /  19.3km/h 19.0mph /  30.6km/h 87% 0.00in /  0mm 7 W/m2
07:59 37.2 °F /  2.9 °C 33.7 °F /  0.9 °C 29.52in /  999.5hPa WNW 11.0mph /  17.7km/h 18.0mph /  29km/h 87% 0.00in /  0mm 9 W/m2
08:04 37.2 °F /  2.9 °C 33.7 °F /  0.9 °C 29.52in /  999.5hPa WNW 13.0mph /  20.9km/h 19.0mph /  30.6km/h 87% 0.00in /  0mm 12 W/m2
08:09 37.2 °F /  2.9 °C 33.4 °F /  0.8 °C 29.53in /  999.9hPa WNW 12.0mph /  19.3km/h 19.0mph /  30.6km/h 86% 0.00in /  0mm 14 W/m2
08:14 37.2 °F /  2.9 °C 33.4 °F /  0.8 °C 29.53in /  999.9hPa WNW 9.0mph /  14.5km/h 18.0mph /  29km/h 86% 0.00in /  0mm 16 W/m2
08:19 37.2 °F /  2.9 °C 33.4 °F /  0.8 °C 29.53in /  999.9hPa WNW 7.0mph /  11.3km/h 13.0mph /  20.9km/h 86% 0.00in /  0mm 18 W/m2
08:24 37.2 °F /  2.9 °C 33.4 °F /  0.8 °C 29.53in /  999.9hPa WNW 11.0mph /  17.7km/h 19.0mph /  30.6km/h 86% 0.00in /  0mm 21 W/m2
08:29 37.2 °F /  2.9 °C 33.1 °F /  0.6 °C 29.53in /  999.9hPa West 11.0mph /  17.7km/h 18.0mph /  29km/h 85% 0.00in /  0mm 21 W/m2
08:34 37.2 °F /  2.9 °C 33.1 °F /  0.6 °C 29.53in /  999.9hPa West 12.0mph /  19.3km/h 19.0mph /  30.6km/h 85% 0.00in /  0mm 25 W/m2
08:40 37.4 °F /  3 °C 33.3 °F /  0.7 °C 29.53in /  999.9hPa WNW 13.0mph /  20.9km/h 19.0mph /  30.6km/h 85% 0.00in /  0mm 25 W/m2
08:45 37.6 °F /  3.1 °C 33.2 °F /  0.7 °C 29.53in /  999.9hPa WNW 12.0mph /  19.3km/h 19.0mph /  30.6km/h 84% 0.00in /  0mm 26 W/m2
08:50 37.6 °F /  3.1 °C 33.5 °F /  0.8 °C 29.53in /  999.9hPa WNW 12.0mph /  19.3km/h 20.0mph /  32.2km/h 85% 0.00in /  0mm 30 W/m2
08:55 37.6 °F /  3.1 °C 33.5 °F /  0.8 °C 29.54in /  1000.2hPa WNW 11.0mph /  17.7km/h 16.0mph /  25.7km/h 85% 0.00in /  0mm 33 W/m2
09:00 37.8 °F /  3.2 °C 33.7 °F /  0.9 °C 29.53in /  999.9hPa WNW 10.0mph /  16.1km/h 15.0mph /  24.1km/h 85% 0.00in /  0mm 42 W/m2
09:05 37.9 °F /  3.3 °C 33.8 °F /  1 °C 29.53in /  999.9hPa WNW 13.0mph /  20.9km/h 21.0mph /  33.8km/h 85% 0.00in /  0mm 53 W/m2
09:10 37.9 °F /  3.3 °C 33.8 °F /  1 °C 29.53in /  999.9hPa WNW 12.0mph /  19.3km/h 21.0mph /  33.8km/h 85% 0.00in /  0mm 47 W/m2
09:15 38.1 °F /  3.4 °C 33.7 °F /  0.9 °C 29.53in /  999.9hPa WNW 14.0mph /  22.5km/h 22.0mph /  35.4km/h 84% 0.00in /  0mm 47 W/m2
09:20 38.5 °F /  3.6 °C 34.1 °F /  1.2 °C 29.53in /  999.9hPa WNW 11.0mph /  17.7km/h 19.0mph /  30.6km/h 84% 0.00in /  0mm 141 W/m2
09:25 38.7 °F /  3.7 °C 34.2 °F /  1.2 °C 29.53in /  999.9hPa WNW 12.0mph /  19.3km/h 20.0mph /  32.2km/h 84% 0.00in /  0mm 193 W/m2
09:30 38.8 °F /  3.8 °C 34.4 °F /  1.3 °C 29.53in /  999.9hPa WNW 13.0mph /  20.9km/h 24.0mph /  38.6km/h 84% 0.00in /  0mm 178 W/m2
09:35 39.0 °F /  3.9 °C 34.6 °F /  1.4 °C 29.53in /  999.9hPa WNW 15.0mph /  24.1km/h 23.0mph /  37km/h 84% 0.00in /  0mm 211 W/m2
09:40 39.4 °F /  4.1 °C 34.9 °F /  1.6 °C 29.53in /  999.9hPa WNW 15.0mph /  24.1km/h 24.0mph /  38.6km/h 84% 0.00in /  0mm 148 W/m2
09:45 39.6 °F /  4.2 °C 34.8 °F /  1.6 °C 29.54in /  1000.2hPa WNW 18.0mph /  29km/h 27.0mph /  43.5km/h 83% 0.00in /  0mm 220 W/m2
09:50 39.7 °F /  4.3 °C 35.0 °F /  1.7 °C 29.54in /  1000.2hPa WNW 15.0mph /  24.1km/h 22.0mph /  35.4km/h 83% 0.00in /  0mm 95 W/m2
09:55 39.7 °F /  4.3 °C 34.7 °F /  1.5 °C 29.54in /  1000.2hPa WNW 16.0mph /  25.7km/h 24.0mph /  38.6km/h 82% 0.00in /  0mm 69 W/m2
10:00 39.7 °F /  4.3 °C 35.0 °F /  1.7 °C 29.54in /  1000.2hPa WNW 17.0mph /  27.4km/h 24.0mph /  38.6km/h 83% 0.00in /  0mm 236 W/m2
10:05 40.1 °F /  4.5 °C 35.0 °F /  1.7 °C 29.54in /  1000.2hPa WNW 12.0mph /  19.3km/h 22.0mph /  35.4km/h 82% 0.00in /  0mm 244 W/m2
10:10 40.5 °F /  4.7 °C 35.4 °F /  1.9 °C 29.55in /  1000.6hPa WNW 13.0mph /  20.9km/h 19.0mph /  30.6km/h 82% 0.00in /  0mm 257 W/m2
10:15 40.6 °F /  4.8 °C 35.3 °F /  1.8 °C 29.55in /  1000.6hPa WNW 14.0mph /  22.5km/h 21.0mph /  33.8km/h 81% 0.00in /  0mm 262 W/m2
10:20 40.8 °F /  4.9 °C 35.4 °F /  1.9 °C 29.55in /  1000.6hPa WNW 15.0mph /  24.1km/h 25.0mph /  40.2km/h 81% 0.00in /  0mm 271 W/m2
10:25 40.8 °F /  4.9 °C 35.4 °F /  1.9 °C 29.54in /  1000.2hPa WNW 15.0mph /  24.1km/h 27.0mph /  43.5km/h 81% 0.00in /  0mm 276 W/m2
10:30 41.2 °F /  5.1 °C 35.8 °F /  2.1 °C 29.55in /  1000.6hPa WNW 13.0mph /  20.9km/h 24.0mph /  38.6km/h 81% 0.00in /  0mm 290 W/m2
10:35 41.2 °F /  5.1 °C 35.5 °F /  1.9 °C 29.54in /  1000.2hPa WNW 14.0mph /  22.5km/h 24.0mph /  38.6km/h 80% 0.00in /  0mm 304 W/m2
10:40 41.4 °F /  5.2 °C 35.7 °F /  2.1 °C 29.54in /  1000.2hPa WNW 15.0mph /  24.1km/h 24.0mph /  38.6km/h 80% 0.00in /  0mm 306 W/m2
10:46 41.4 °F /  5.2 °C 35.7 °F /  2.1 °C 29.55in /  1000.6hPa WNW 16.0mph /  25.7km/h 25.0mph /  40.2km/h 80% 0.00in /  0mm 311 W/m2
10:51 41.5 °F /  5.3 °C 35.8 °F /  2.1 °C 29.55in /  1000.6hPa WNW 12.0mph /  19.3km/h 19.0mph /  30.6km/h 80% 0.00in /  0mm 313 W/m2
10:56 41.5 °F /  5.3 °C 35.5 °F /  1.9 °C 29.55in /  1000.6hPa WNW 15.0mph /  24.1km/h 23.0mph /  37km/h 79% 0.00in /  0mm 316 W/m2
11:01 41.7 °F /  5.4 °C 35.7 °F /  2.1 °C 29.55in /  1000.6hPa WNW 14.0mph /  22.5km/h 23.0mph /  37km/h 79% 0.00in /  0mm 323 W/m2
11:06 41.9 °F /  5.5 °C 35.9 °F /  2.2 °C 29.55in /  1000.6hPa WNW 16.0mph /  25.7km/h 23.0mph /  37km/h 79% 0.00in /  0mm 329 W/m2
11:11 42.1 °F /  5.6 °C 35.7 °F /  2.1 °C 29.55in /  1000.6hPa WNW 15.0mph /  24.1km/h 26.0mph /  41.8km/h 78% 0.00in /  0mm 332 W/m2
11:16 42.3 °F /  5.7 °C 35.9 °F /  2.2 °C 29.55in /  1000.6hPa WNW 13.0mph /  20.9km/h 20.0mph /  32.2km/h 78% 0.00in /  0mm 336 W/m2
11:21 42.4 °F /  5.8 °C 36.1 °F /  2.3 °C 29.55in /  1000.6hPa WNW 14.0mph /  22.5km/h 23.0mph /  37km/h 78% 0.00in /  0mm 343 W/m2
11:26 42.4 °F /  5.8 °C 35.7 °F /  2.1 °C 29.55in /  1000.6hPa WNW 14.0mph /  22.5km/h 22.0mph /  35.4km/h 77% 0.00in /  0mm 348 W/m2
11:31 42.6 °F /  5.9 °C 35.9 °F /  2.2 °C 29.55in /  1000.6hPa WNW 15.0mph /  24.1km/h 22.0mph /  35.4km/h 77% 0.00in /  0mm 352 W/m2
11:36 42.6 °F /  5.9 °C 35.9 °F /  2.2 °C 29.55in /  1000.6hPa WNW 17.0mph /  27.4km/h 27.0mph /  43.5km/h 77% 0.00in /  0mm 360 W/m2
11:41 42.8 °F /  6 °C 36.1 °F /  2.3 °C 29.55in /  1000.6hPa WNW 16.0mph /  25.7km/h 24.0mph /  38.6km/h 77% 0.00in /  0mm 355 W/m2
11:46 43.0 °F /  6.1 °C 36.3 °F /  2.4 °C 29.55in /  1000.6hPa WNW 13.0mph /  20.9km/h 20.0mph /  32.2km/h 77% 0.00in /  0mm 360 W/m2
11:51 43.0 °F /  6.1 °C 35.9 °F /  2.2 °C 29.55in /  1000.6hPa NW 15.0mph /  24.1km/h 28.0mph /  45.1km/h 76% 0.00in /  0mm 362 W/m2
11:56 43.0 °F /  6.1 °C 35.6 °F /  2 °C 29.56in /  1000.9hPa WNW 16.0mph /  25.7km/h 26.0mph /  41.8km/h 75% 0.00in /  0mm 367 W/m2
12:01 43.2 °F /  6.2 °C 35.8 °F /  2.1 °C 29.56in /  1000.9hPa WNW 20.0mph /  32.2km/h 31.0mph /  49.9km/h 75% 0.00in /  0mm 369 W/m2
12:06 43.2 °F /  6.2 °C 35.8 °F /  2.1 °C 29.56in /  1000.9hPa WNW 16.0mph /  25.7km/h 27.0mph /  43.5km/h 75% 0.00in /  0mm 373 W/m2
12:11 43.3 °F /  6.3 °C 35.9 °F /  2.2 °C 29.56in /  1000.9hPa WNW 16.0mph /  25.7km/h 24.0mph /  38.6km/h 75% 0.00in /  0mm 371 W/m2
12:16 43.5 °F /  6.4 °C 35.8 °F /  2.1 °C 29.56in /  1000.9hPa WNW 16.0mph /  25.7km/h 24.0mph /  38.6km/h 74% 0.00in /  0mm 380 W/m2
12:21 43.5 °F /  6.4 °C 35.8 °F /  2.1 °C 29.57in /  1001.2hPa WNW 19.0mph /  30.6km/h 25.0mph /  40.2km/h 74% 0.00in /  0mm 376 W/m2
12:26 43.7 °F /  6.5 °C 35.6 °F /  2 °C 29.57in /  1001.2hPa WNW 18.0mph /  29km/h 30.0mph /  48.3km/h 73% 0.00in /  0mm 396 W/m2
12:31 43.9 °F /  6.6 °C 35.8 °F /  2.1 °C 29.57in /  1001.2hPa WNW 17.0mph /  27.4km/h 28.0mph /  45.1km/h 73% 0.00in /  0mm 404 W/m2
12:36 44.1 °F /  6.7 °C 35.6 °F /  2 °C 29.57in /  1001.2hPa WNW 20.0mph /  32.2km/h 27.0mph /  43.5km/h 72% 0.00in /  0mm 462 W/m2
12:41 44.4 °F /  6.9 °C 36.3 °F /  2.4 °C 29.57in /  1001.2hPa WNW 16.0mph /  25.7km/h 25.0mph /  40.2km/h 73% 0.00in /  0mm 582 W/m2
12:46 44.8 °F /  7.1 °C 36.3 °F /  2.4 °C 29.57in /  1001.2hPa WNW 17.0mph /  27.4km/h 25.0mph /  40.2km/h 72% 0.00in /  0mm 272 W/m2
12:51 44.6 °F /  7 °C 35.8 °F /  2.1 °C 29.57in /  1001.2hPa WNW 19.0mph /  30.6km/h 27.0mph /  43.5km/h 71% 0.00in /  0mm 236 W/m2
12:56 44.2 °F /  6.8 °C 35.8 °F /  2.1 °C 29.57in /  1001.2hPa WNW 16.0mph /  25.7km/h 25.0mph /  40.2km/h 72% 0.00in /  0mm 258 W/m2
13:01 44.2 °F /  6.8 °C 36.1 °F /  2.3 °C 29.57in /  1001.2hPa WNW 18.0mph /  29km/h 25.0mph /  40.2km/h 73% 0.00in /  0mm 515 W/m2
13:06 44.8 °F /  7.1 °C 36.7 °F /  2.6 °C 29.57in /  1001.2hPa WNW 16.0mph /  25.7km/h 27.0mph /  43.5km/h 73% 0.00in /  0mm 369 W/m2
13:11 44.8 °F /  7.1 °C 36.3 °F /  2.4 °C 29.57in /  1001.2hPa WNW 16.0mph /  25.7km/h 24.0mph /  38.6km/h 72% 0.00in /  0mm 346 W/m2
13:16 44.6 °F /  7 °C 35.8 °F /  2.1 °C 29.57in /  1001.2hPa WNW 17.0mph /  27.4km/h 26.0mph /  41.8km/h 71% 0.00in /  0mm 202 W/m2
13:21 44.4 °F /  6.9 °C 36.3 °F /  2.4 °C 29.57in /  1001.2hPa WNW 13.0mph /  20.9km/h 20.0mph /  32.2km/h 73% 0.00in /  0mm 190 W/m2
13:27 44.2 °F /  6.8 °C 36.1 °F /  2.3 °C 29.58in /  1001.6hPa WNW 13.0mph /  20.9km/h 22.0mph /  35.4km/h 73% 0.00in /  0mm 188 W/m2
13:32 44.1 °F /  6.7 °C 36.0 °F /  2.2 °C 29.58in /  1001.6hPa WNW 14.0mph /  22.5km/h 24.0mph /  38.6km/h 73% 0.00in /  0mm 121 W/m2
13:37 43.9 °F /  6.6 °C 35.8 °F /  2.1 °C 29.58in /  1001.6hPa WNW 13.0mph /  20.9km/h 22.0mph /  35.4km/h 73% 0.00in /  0mm 83 W/m2
13:42 43.7 °F /  6.5 °C 36.0 °F /  2.2 °C 29.58in /  1001.6hPa WNW 12.0mph /  19.3km/h 20.0mph /  32.2km/h 74% 0.00in /  0mm 83 W/m2
13:47 43.5 °F /  6.4 °C 35.8 °F /  2.1 °C 29.58in /  1001.6hPa WNW 11.0mph /  17.7km/h 15.0mph /  24.1km/h 74% 0.00in /  0mm 86 W/m2
13:52 43.3 °F /  6.3 °C 35.6 °F /  2 °C 29.58in /  1001.6hPa NW 16.0mph /  25.7km/h 24.0mph /  38.6km/h 74% 0.00in /  0mm 70 W/m2
13:57 43.2 °F /  6.2 °C 35.8 °F /  2.1 °C 29.59in /  1001.9hPa WNW 15.0mph /  24.1km/h 23.0mph /  37km/h 75% 0.00in /  0mm 51 W/m2
14:02 43.0 °F /  6.1 °C 35.9 °F /  2.2 °C 29.59in /  1001.9hPa NW 11.0mph /  17.7km/h 19.0mph /  30.6km/h 76% 0.00in /  0mm 46 W/m2
14:07 42.6 °F /  5.9 °C 36.2 °F /  2.3 °C 29.59in /  1001.9hPa WNW 10.0mph /  16.1km/h 16.0mph /  25.7km/h 78% 0.00in /  0mm 42 W/m2
14:12 42.4 °F /  5.8 °C 36.1 °F /  2.3 °C 29.59in /  1001.9hPa WNW 12.0mph /  19.3km/h 18.0mph /  29km/h 78% 0.00in /  0mm 44 W/m2
14:17 42.4 °F /  5.8 °C 36.1 °F /  2.3 °C 29.59in /  1001.9hPa WNW 10.0mph /  16.1km/h 18.0mph /  29km/h 78% 0.00in /  0mm 54 W/m2
14:22 42.4 °F /  5.8 °C 36.1 °F /  2.3 °C 29.59in /  1001.9hPa WNW 10.0mph /  16.1km/h 14.0mph /  22.5km/h 78% 0.00in /  0mm 53 W/m2
14:27 42.4 °F /  5.8 °C 36.1 °F /  2.3 °C 29.59in /  1001.9hPa WNW 8.0mph /  12.9km/h 16.0mph /  25.7km/h 78% 0.00in /  0mm 51 W/m2
14:32 42.4 °F /  5.8 °C 36.1 °F /  2.3 °C 29.60in /  1002.3hPa WNW 10.0mph /  16.1km/h 20.0mph /  32.2km/h 78% 0.00in /  0mm 49 W/m2
14:37 42.6 °F /  5.9 °C 35.9 °F /  2.2 °C 29.60in /  1002.3hPa WNW 11.0mph /  17.7km/h 22.0mph /  35.4km/h 77% 0.00in /  0mm 44 W/m2
14:42 42.6 °F /  5.9 °C 35.9 °F /  2.2 °C 29.60in /  1002.3hPa NW 9.0mph /  14.5km/h 14.0mph /  22.5km/h 77% 0.00in /  0mm 46 W/m2
14:47 42.6 °F /  5.9 °C 35.6 °F /  2 °C 29.60in /  1002.3hPa NW 10.0mph /  16.1km/h 16.0mph /  25.7km/h 76% 0.00in /  0mm 28 W/m2
14:52 42.8 °F /  6 °C 35.1 °F /  1.7 °C 29.60in /  1002.3hPa NW 16.0mph /  25.7km/h 25.0mph /  40.2km/h 74% 0.00in /  0mm 30 W/m2
14:57 43.0 °F /  6.1 °C 35.3 °F /  1.8 °C 29.61in /  1002.6hPa WNW 10.0mph /  16.1km/h 20.0mph /  32.2km/h 74% 0.00in /  0mm 32 W/m2
15:02 43.0 °F /  6.1 °C 34.9 °F /  1.6 °C 29.61in /  1002.6hPa NW 14.0mph /  22.5km/h 24.0mph /  38.6km/h 73% 0.00in /  0mm 42 W/m2
15:07 43.0 °F /  6.1 °C 34.9 °F /  1.6 °C 29.61in /  1002.6hPa WNW 10.0mph /  16.1km/h 15.0mph /  24.1km/h 73% 0.00in /  0mm 49 W/m2
15:12 43.0 °F /  6.1 °C 34.6 °F /  1.4 °C 29.62in /  1002.9hPa NW 15.0mph /  24.1km/h 23.0mph /  37km/h 72% 0.00in /  0mm 51 W/m2
15:17 43.2 °F /  6.2 °C 34.7 °F /  1.5 °C 29.62in /  1002.9hPa NW 11.0mph /  17.7km/h 19.0mph /  30.6km/h 72% 0.00in /  0mm 44 W/m2
15:22 43.2 °F /  6.2 °C 34.4 °F /  1.3 °C 29.62in /  1002.9hPa NW 11.0mph /  17.7km/h 20.0mph /  32.2km/h 71% 0.00in /  0mm 39 W/m2
15:27 43.2 °F /  6.2 °C 34.4 °F /  1.3 °C 29.62in /  1002.9hPa WNW 14.0mph /  22.5km/h 25.0mph /  40.2km/h 71% 0.00in /  0mm 37 W/m2
15:32 43.2 °F /  6.2 °C 34.4 °F /  1.3 °C 29.62in /  1002.9hPa WNW 13.0mph /  20.9km/h 22.0mph /  35.4km/h 71% 0.00in /  0mm 39 W/m2
15:37 43.2 °F /  6.2 °C 34.4 °F /  1.3 °C 29.62in /  1002.9hPa NW 9.0mph /  14.5km/h 18.0mph /  29km/h 71% 0.00in /  0mm 30 W/m2
15:42 43.2 °F /  6.2 °C 34.4 °F /  1.3 °C 29.63in /  1003.3hPa WNW 14.0mph /  22.5km/h 21.0mph /  33.8km/h 71% 0.00in /  0mm 28 W/m2
15:47 43.2 °F /  6.2 °C 34.4 °F /  1.3 °C 29.63in /  1003.3hPa WNW 13.0mph /  20.9km/h 21.0mph /  33.8km/h 71% 0.00in /  0mm 28 W/m2
15:52 43.2 °F /  6.2 °C 34.4 °F /  1.3 °C 29.63in /  1003.3hPa WNW 10.0mph /  16.1km/h 16.0mph /  25.7km/h 71% 0.00in /  0mm 25 W/m2
15:57 43.0 °F /  6.1 °C 34.2 °F /  1.2 °C 29.63in /  1003.3hPa WNW 11.0mph /  17.7km/h 20.0mph /  32.2km/h 71% 0.00in /  0mm 32 W/m2
16:02 43.0 °F /  6.1 °C 34.2 °F /  1.2 °C 29.63in /  1003.3hPa NW 9.0mph /  14.5km/h 14.0mph /  22.5km/h 71% 0.00in /  0mm 26 W/m2
16:07 43.0 °F /  6.1 °C 33.9 °F /  1.1 °C 29.64in /  1003.6hPa NW 10.0mph /  16.1km/h 20.0mph /  32.2km/h 70% 0.00in /  0mm 28 W/m2
16:12 43.0 °F /  6.1 °C 33.9 °F /  1.1 °C 29.64in /  1003.6hPa NW 11.0mph /  17.7km/h 16.0mph /  25.7km/h 70% 0.00in /  0mm 26 W/m2
16:17 43.0 °F /  6.1 °C 33.9 °F /  1.1 °C 29.64in /  1003.6hPa NW 9.0mph /  14.5km/h 19.0mph /  30.6km/h 70% 0.00in /  0mm 25 W/m2
16:22 42.8 °F /  6 °C 33.7 °F /  0.9 °C 29.64in /  1003.6hPa NW 10.0mph /  16.1km/h 16.0mph /  25.7km/h 70% 0.00in /  0mm 30 W/m2
16:27 42.8 °F /  6 °C 33.7 °F /  0.9 °C 29.65in /  1003.9hPa NW 12.0mph /  19.3km/h 21.0mph /  33.8km/h 70% 0.00in /  0mm 16 W/m2
16:32 42.6 °F /  5.9 °C 33.5 °F /  0.8 °C 29.65in /  1003.9hPa NW 11.0mph /  17.7km/h 19.0mph /  30.6km/h 70% 0.00in /  0mm 9 W/m2
16:37 42.6 °F /  5.9 °C 33.2 °F /  0.7 °C 29.65in /  1003.9hPa WNW 10.0mph /  16.1km/h 15.0mph /  24.1km/h 69% 0.00in /  0mm 7 W/m2
16:42 42.6 °F /  5.9 °C 33.2 °F /  0.7 °C 29.65in /  1003.9hPa WNW 13.0mph /  20.9km/h 20.0mph /  32.2km/h 69% 0.00in /  0mm 5 W/m2
16:47 42.6 °F /  5.9 °C 33.2 °F /  0.7 °C 29.66in /  1004.3hPa WNW 11.0mph /  17.7km/h 22.0mph /  35.4km/h 69% 0.00in /  0mm 5 W/m2
16:53 42.4 °F /  5.8 °C 33.0 °F /  0.6 °C 29.66in /  1004.3hPa NW 11.0mph /  17.7km/h 23.0mph /  37km/h 69% 0.00in /  0mm 0 W/m2
16:58 42.4 °F /  5.8 °C 33.0 °F /  0.6 °C 29.66in /  1004.3hPa NW 12.0mph /  19.3km/h 21.0mph /  33.8km/h 69% 0.00in /  0mm 0 W/m2
17:03 42.4 °F /  5.8 °C 33.0 °F /  0.6 °C 29.66in /  1004.3hPa NW 13.0mph /  20.9km/h 21.0mph /  33.8km/h 69% 0.00in /  0mm 0 W/m2
17:08 42.3 °F /  5.7 °C 32.8 °F /  0.4 °C 29.67in /  1004.6hPa NW 10.0mph /  16.1km/h 20.0mph /  32.2km/h 69% 0.00in /  0mm 0 W/m2
17:13 42.3 °F /  5.7 °C 33.2 °F /  0.7 °C 29.67in /  1004.6hPa WNW 10.0mph /  16.1km/h 16.0mph /  25.7km/h 70% 0.00in /  0mm 0 W/m2
17:18 42.3 °F /  5.7 °C 32.8 °F /  0.4 °C 29.67in /  1004.6hPa NW 13.0mph /  20.9km/h 21.0mph /  33.8km/h 69% 0.00in /  0mm 0 W/m2
17:23 42.1 °F /  5.6 °C 33.0 °F /  0.6 °C 29.67in /  1004.6hPa WNW 9.0mph /  14.5km/h 14.0mph /  22.5km/h 70% 0.00in /  0mm 0 W/m2
17:28 42.1 °F /  5.6 °C 33.0 °F /  0.6 °C 29.67in /  1004.6hPa WNW 10.0mph /  16.1km/h 15.0mph /  24.1km/h 70% 0.00in /  0mm 0 W/m2
17:33 41.9 °F /  5.5 °C 32.8 °F /  0.4 °C 29.67in /  1004.6hPa WNW 10.0mph /  16.1km/h 19.0mph /  30.6km/h 70% 0.00in /  0mm 0 W/m2
17:38 41.7 °F /  5.4 °C 32.7 °F /  0.4 °C 29.67in /  1004.6hPa WNW 11.0mph /  17.7km/h 19.0mph /  30.6km/h 70% 0.00in /  0mm 0 W/m2
17:43 41.7 °F /  5.4 °C 32.7 °F /  0.4 °C 29.68in /  1005hPa WNW 9.0mph /  14.5km/h 15.0mph /  24.1km/h 70% 0.00in /  0mm 0 W/m2
17:48 41.7 °F /  5.4 °C 32.7 °F /  0.4 °C 29.68in /  1005hPa WNW 6.0mph /  9.7km/h 11.0mph /  17.7km/h 70% 0.00in /  0mm 0 W/m2
17:53 41.5 °F /  5.3 °C 32.5 °F /  0.3 °C 29.68in /  1005hPa WNW 8.0mph /  12.9km/h 14.0mph /  22.5km/h 70% 0.00in /  0mm 0 W/m2
17:58 41.4 °F /  5.2 °C 32.3 °F /  0.2 °C 29.69in /  1005.3hPa WNW 8.0mph /  12.9km/h 14.0mph /  22.5km/h 70% 0.00in /  0mm 0 W/m2
18:03 41.4 °F /  5.2 °C 32.3 °F /  0.2 °C 29.69in /  1005.3hPa WNW 12.0mph /  19.3km/h 20.0mph /  32.2km/h 70% 0.00in /  0mm 0 W/m2
18:08 41.4 °F /  5.2 °C 32.7 °F /  0.4 °C 29.69in /  1005.3hPa WNW 11.0mph /  17.7km/h 19.0mph /  30.6km/h 71% 0.00in /  0mm 0 W/m2
18:13 41.2 °F /  5.1 °C 32.5 °F /  0.3 °C 29.69in /  1005.3hPa WNW 6.0mph /  9.7km/h 10.0mph /  16.1km/h 71% 0.00in /  0mm 0 W/m2
18:18 41.2 °F /  5.1 °C 32.5 °F /  0.3 °C 29.69in /  1005.3hPa WNW 10.0mph /  16.1km/h 16.0mph /  25.7km/h 71% 0.00in /  0mm 0 W/m2
18:23 41.2 °F /  5.1 °C 32.1 °F /  0.1 °C 29.69in /  1005.3hPa NW 10.0mph /  16.1km/h 21.0mph /  33.8km/h 70% 0.00in /  0mm 0 W/m2
18:28 41.0 °F /  5 °C 32.0 °F /  0 °C 29.69in /  1005.3hPa WNW 11.0mph /  17.7km/h 15.0mph /  24.1km/h 70% 0.00in /  0mm 0 W/m2
18:33 40.8 °F /  4.9 °C 32.1 °F /  0.1 °C 29.70in /  1005.6hPa WNW 11.0mph /  17.7km/h 19.0mph /  30.6km/h 71% 0.00in /  0mm 0 W/m2
18:38 40.8 °F /  4.9 °C 32.1 °F /  0.1 °C 29.70in /  1005.6hPa NW 11.0mph /  17.7km/h 19.0mph /  30.6km/h 71% 0.00in /  0mm 0 W/m2
18:43 40.8 °F /  4.9 °C 32.1 °F /  0.1 °C 29.70in /  1005.6hPa WNW 11.0mph /  17.7km/h 21.0mph /  33.8km/h 71% 0.00in /  0mm 0 W/m2
18:48 40.8 °F /  4.9 °C 32.1 °F /  0.1 °C 29.70in /  1005.6hPa NW 13.0mph /  20.9km/h 20.0mph /  32.2km/h 71% 0.00in /  0mm 0 W/m2
18:53 41.0 °F /  5 °C 32.3 °F /  0.2 °C 29.70in /  1005.6hPa NW 12.0mph /  19.3km/h 18.0mph /  29km/h 71% 0.00in /  0mm 0 W/m2
18:58 41.2 °F /  5.1 °C 32.5 °F /  0.3 °C 29.70in /  1005.6hPa NW 14.0mph /  22.5km/h 22.0mph /  35.4km/h 71% 0.00in /  0mm 0 W/m2
19:03 41.2 °F /  5.1 °C 32.5 °F /  0.3 °C 29.70in /  1005.6hPa NW 12.0mph /  19.3km/h 19.0mph /  30.6km/h 71% 0.00in /  0mm 0 W/m2
19:08 41.2 °F /  5.1 °C 32.5 °F /  0.3 °C 29.70in /  1005.6hPa WNW 12.0mph /  19.3km/h 21.0mph /  33.8km/h 71% 0.00in /  0mm 0 W/m2
19:13 41.0 °F /  5 °C 32.3 °F /  0.2 °C 29.70in /  1005.6hPa WNW 12.0mph /  19.3km/h 20.0mph /  32.2km/h 71% 0.00in /  0mm 0 W/m2
19:18 40.8 °F /  4.9 °C 32.1 °F /  0.1 °C 29.71in /  1006hPa WNW 8.0mph /  12.9km/h 12.0mph /  19.3km/h 71% 0.00in /  0mm 0 W/m2
19:23 40.6 °F /  4.8 °C 32.0 °F /  0 °C 29.70in /  1005.6hPa NW 12.0mph /  19.3km/h 24.0mph /  38.6km/h 71% 0.00in /  0mm 0 W/m2
19:28 40.6 °F /  4.8 °C 32.0 °F /  0 °C 29.70in /  1005.6hPa NW 10.0mph /  16.1km/h 19.0mph /  30.6km/h 71% 0.00in /  0mm 0 W/m2
19:33 40.5 °F /  4.7 °C 31.8 °F /  -0.1 °C 29.70in /  1005.6hPa NW 9.0mph /  14.5km/h 19.0mph /  30.6km/h 71% 0.00in /  0mm 0 W/m2
19:38 40.3 °F /  4.6 °C 31.6 °F /  -0.2 °C 29.71in /  1006hPa WNW 8.0mph /  12.9km/h 13.0mph /  20.9km/h 71% 0.00in /  0mm 0 W/m2
19:44 40.3 °F /  4.6 °C 32.0 °F /  0 °C 29.71in /  1006hPa WNW 8.0mph /  12.9km/h 14.0mph /  22.5km/h 72% 0.00in /  0mm 0 W/m2
19:49 40.1 °F /  4.5 °C 31.8 °F /  -0.1 °C 29.71in /  1006hPa WNW 7.0mph /  11.3km/h 13.0mph /  20.9km/h 72% 0.00in /  0mm 0 W/m2
19:54 39.9 °F /  4.4 °C 31.6 °F /  -0.2 °C 29.71in /  1006hPa WNW 9.0mph /  14.5km/h 15.0mph /  24.1km/h 72% 0.00in /  0mm 0 W/m2
19:59 39.9 °F /  4.4 °C 31.6 °F /  -0.2 °C 29.71in /  1006hPa WNW 9.0mph /  14.5km/h 18.0mph /  29km/h 72% 0.00in /  0mm 0 W/m2
20:04 39.9 °F /  4.4 °C 31.6 °F /  -0.2 °C 29.71in /  1006hPa WNW 10.0mph /  16.1km/h 16.0mph /  25.7km/h 72% 0.00in /  0mm 0 W/m2
20:09 39.7 °F /  4.3 °C 31.4 °F /  -0.3 °C 29.71in /  1006hPa NW 9.0mph /  14.5km/h 15.0mph /  24.1km/h 72% 0.00in /  0mm 0 W/m2
20:14 39.7 °F /  4.3 °C 31.8 °F /  -0.1 °C 29.71in /  1006hPa WNW 8.0mph /  12.9km/h 14.0mph /  22.5km/h 73% 0.00in /  0mm 0 W/m2
20:19 39.7 °F /  4.3 °C 31.8 °F /  -0.1 °C 29.71in /  1006hPa WNW 11.0mph /  17.7km/h 16.0mph /  25.7km/h 73% 0.00in /  0mm 0 W/m2
20:24 39.6 °F /  4.2 °C 31.6 °F /  -0.2 °C 29.71in /  1006hPa WNW 9.0mph /  14.5km/h 15.0mph /  24.1km/h 73% 0.00in /  0mm 0 W/m2
20:29 39.6 °F /  4.2 °C 31.6 °F /  -0.2 °C 29.71in /  1006hPa WNW 11.0mph /  17.7km/h 20.0mph /  32.2km/h 73% 0.00in /  0mm 0 W/m2
20:34 39.4 °F /  4.1 °C 31.8 °F /  -0.1 °C 29.72in /  1006.3hPa WNW 9.0mph /  14.5km/h 14.0mph /  22.5km/h 74% 0.00in /  0mm 0 W/m2
20:39 39.4 °F /  4.1 °C 31.8 °F /  -0.1 °C 29.72in /  1006.3hPa WNW 10.0mph /  16.1km/h 20.0mph /  32.2km/h 74% 0.00in /  0mm 0 W/m2
20:44 39.4 °F /  4.1 °C 31.8 °F /  -0.1 °C 29.72in /  1006.3hPa NW 11.0mph /  17.7km/h 21.0mph /  33.8km/h 74% 0.00in /  0mm 0 W/m2
20:49 39.4 °F /  4.1 °C 31.8 °F /  -0.1 °C 29.72in /  1006.3hPa WNW 8.0mph /  12.9km/h 18.0mph /  29km/h 74% 0.00in /  0mm 0 W/m2
20:54 39.4 °F /  4.1 °C 31.8 °F /  -0.1 °C 29.72in /  1006.3hPa WNW 11.0mph /  17.7km/h 19.0mph /  30.6km/h 74% 0.00in /  0mm 0 W/m2
20:59 39.4 °F /  4.1 °C 31.8 °F /  -0.1 °C 29.73in /  1006.7hPa NW 9.0mph /  14.5km/h 15.0mph /  24.1km/h 74% 0.00in /  0mm 0 W/m2
21:04 39.4 °F /  4.1 °C 31.8 °F /  -0.1 °C 29.73in /  1006.7hPa WNW 10.0mph /  16.1km/h 19.0mph /  30.6km/h 74% 0.00in /  0mm 0 W/m2
21:09 39.4 °F /  4.1 °C 31.8 °F /  -0.1 °C 29.73in /  1006.7hPa WNW 11.0mph /  17.7km/h 19.0mph /  30.6km/h 74% 0.00in /  0mm 0 W/m2
21:14 39.6 °F /  4.2 °C 32.0 °F /  0 °C 29.73in /  1006.7hPa WNW 9.0mph /  14.5km/h 15.0mph /  24.1km/h 74% 0.00in /  0mm 0 W/m2
21:19 39.4 °F /  4.1 °C 31.8 °F /  -0.1 °C 29.73in /  1006.7hPa WNW 9.0mph /  14.5km/h 15.0mph /  24.1km/h 74% 0.00in /  0mm 0 W/m2
21:24 39.4 °F /  4.1 °C 31.8 °F /  -0.1 °C 29.73in /  1006.7hPa WNW 11.0mph /  17.7km/h 19.0mph /  30.6km/h 74% 0.00in /  0mm 0 W/m2
21:29 39.4 °F /  4.1 °C 31.8 °F /  -0.1 °C 29.73in /  1006.7hPa WNW 8.0mph /  12.9km/h 13.0mph /  20.9km/h 74% 0.00in /  0mm 0 W/m2
21:34 39.2 °F /  4 °C 31.6 °F /  -0.2 °C 29.73in /  1006.7hPa WNW 9.0mph /  14.5km/h 14.0mph /  22.5km/h 74% 0.00in /  0mm 0 W/m2
21:39 39.2 °F /  4 °C 31.6 °F /  -0.2 °C 29.72in /  1006.3hPa WNW 10.0mph /  16.1km/h 19.0mph /  30.6km/h 74% 0.00in /  0mm 0 W/m2
21:44 39.0 °F /  3.9 °C 31.4 °F /  -0.3 °C 29.73in /  1006.7hPa WNW 9.0mph /  14.5km/h 15.0mph /  24.1km/h 74% 0.00in /  0mm 0 W/m2
21:49 39.2 °F /  4 °C 31.9 °F /  -0.1 °C 29.72in /  1006.3hPa WNW 11.0mph /  17.7km/h 20.0mph /  32.2km/h 75% 0.00in /  0mm 0 W/m2
21:54 39.0 °F /  3.9 °C 31.8 °F /  -0.1 °C 29.72in /  1006.3hPa WNW 10.0mph /  16.1km/h 20.0mph /  32.2km/h 75% 0.00in /  0mm 0 W/m2
21:59 39.0 °F /  3.9 °C 31.8 °F /  -0.1 °C 29.73in /  1006.7hPa WNW 11.0mph /  17.7km/h 16.0mph /  25.7km/h 75% 0.00in /  0mm 0 W/m2
22:04 39.0 °F /  3.9 °C 31.8 °F /  -0.1 °C 29.73in /  1006.7hPa WNW 11.0mph /  17.7km/h 22.0mph /  35.4km/h 75% 0.00in /  0mm 0 W/m2
22:09 39.0 °F /  3.9 °C 31.8 °F /  -0.1 °C 29.73in /  1006.7hPa WNW 10.0mph /  16.1km/h 18.0mph /  29km/h 75% 0.00in /  0mm 0 W/m2
22:14 39.0 °F /  3.9 °C 31.8 °F /  -0.1 °C 29.73in /  1006.7hPa WNW 13.0mph /  20.9km/h 21.0mph /  33.8km/h 75% 0.00in /  0mm 0 W/m2
22:19 39.2 °F /  4 °C 31.9 °F /  -0.1 °C 29.73in /  1006.7hPa WNW 12.0mph /  19.3km/h 19.0mph /  30.6km/h 75% 0.00in /  0mm 0 W/m2
22:24 39.2 °F /  4 °C 31.9 °F /  -0.1 °C 29.73in /  1006.7hPa WNW 12.0mph /  19.3km/h 19.0mph /  30.6km/h 75% 0.00in /  0mm 0 W/m2
22:29 39.2 °F /  4 °C 31.9 °F /  -0.1 °C 29.74in /  1007hPa WNW 10.0mph /  16.1km/h 19.0mph /  30.6km/h 75% 0.00in /  0mm 0 W/m2
22:34 39.2 °F /  4 °C 31.9 °F /  -0.1 °C 29.74in /  1007hPa WNW 10.0mph /  16.1km/h 22.0mph /  35.4km/h 75% 0.00in /  0mm 0 W/m2
22:39 39.0 °F /  3.9 °C 31.8 °F /  -0.1 °C 29.74in /  1007hPa WNW 12.0mph /  19.3km/h 20.0mph /  32.2km/h 75% 0.00in /  0mm 0 W/m2
22:44 39.0 °F /  3.9 °C 32.1 °F /  0.1 °C 29.74in /  1007hPa WNW 9.0mph /  14.5km/h 14.0mph /  22.5km/h 76% 0.00in /  0mm 0 W/m2
22:49 39.0 °F /  3.9 °C 32.1 °F /  0.1 °C 29.74in /  1007hPa WNW 10.0mph /  16.1km/h 18.0mph /  29km/h 76% 0.00in /  0mm 0 W/m2
22:54 38.8 °F /  3.8 °C 32.2 °F /  0.1 °C 29.74in /  1007hPa WNW 10.0mph /  16.1km/h 19.0mph /  30.6km/h 77% 0.00in /  0mm 0 W/m2
22:59 38.8 °F /  3.8 °C 32.2 °F /  0.1 °C 29.75in /  1007.3hPa WNW 10.0mph /  16.1km/h 16.0mph /  25.7km/h 77% 0.00in /  0mm 0 W/m2
23:04 38.8 °F /  3.8 °C 32.6 °F /  0.3 °C 29.75in /  1007.3hPa WNW 9.0mph /  14.5km/h 14.0mph /  22.5km/h 78% 0.00in /  0mm 0 W/m2
23:09 38.8 °F /  3.8 °C 32.6 °F /  0.3 °C 29.75in /  1007.3hPa WNW 10.0mph /  16.1km/h 18.0mph /  29km/h 78% 0.00in /  0mm 0 W/m2
23:14 38.8 °F /  3.8 °C 32.6 °F /  0.3 °C 29.74in /  1007hPa WNW 10.0mph /  16.1km/h 15.0mph /  24.1km/h 78% 0.00in /  0mm 0 W/m2
23:19 39.0 °F /  3.9 °C 32.7 °F /  0.4 °C 29.75in /  1007.3hPa WNW 10.0mph /  16.1km/h 15.0mph /  24.1km/h 78% 0.00in /  0mm 0 W/m2
23:24 39.0 °F /  3.9 °C 32.7 °F /  0.4 °C 29.74in /  1007hPa WNW 11.0mph /  17.7km/h 20.0mph /  32.2km/h 78% 0.00in /  0mm 0 W/m2
23:29 39.0 °F /  3.9 °C 32.7 °F /  0.4 °C 29.74in /  1007hPa WNW 11.0mph /  17.7km/h 18.0mph /  29km/h 78% 0.00in /  0mm 0 W/m2
23:35 39.0 °F /  3.9 °C 32.7 °F /  0.4 °C 29.74in /  1007hPa WNW 11.0mph /  17.7km/h 16.0mph /  25.7km/h 78% 0.00in /  0mm 0 W/m2
23:40 39.0 °F /  3.9 °C 32.7 °F /  0.4 °C 29.75in /  1007.3hPa WNW 11.0mph /  17.7km/h 16.0mph /  25.7km/h 78% 0.00in /  0mm 0 W/m2
23:45 39.0 °F /  3.9 °C 32.7 °F /  0.4 °C 29.75in /  1007.3hPa WNW 11.0mph /  17.7km/h 19.0mph /  30.6km/h 78% 0.00in /  0mm 0 W/m2
23:50 39.0 °F /  3.9 °C 32.7 °F /  0.4 °C 29.75in /  1007.3hPa WNW 12.0mph /  19.3km/h 16.0mph /  25.7km/h 78% 0.00in /  0mm 0 W/m2
23:55 39.0 °F /  3.9 °C 32.7 °F /  0.4 °C 29.75in /  1007.3hPa WNW 11.0mph /  17.7km/h 20.0mph /  32.2km/h 78% 0.00in /  0mm 0 W/m2
Delerius Weather

Data updates at regular intervals.